createdAt,value
2018-04-08T00:00:33.101Z,16.61
2018-04-08T00:01:33.096Z,16.71
2018-04-08T00:02:33.036Z,16.68
2018-04-08T00:03:33.020Z,16.67
2018-04-08T00:04:32.964Z,16.60
2018-04-08T00:05:32.916Z,16.57
2018-04-08T00:06:32.904Z,16.46
2018-04-08T00:07:32.878Z,16.45
2018-04-08T00:08:32.809Z,16.43
2018-04-08T00:09:32.795Z,16.53
2018-04-08T00:10:32.735Z,16.57
2018-04-08T00:11:32.704Z,16.46
2018-04-08T00:12:32.699Z,16.52
2018-04-08T00:13:32.641Z,16.38
2018-04-08T00:14:32.600Z,16.35
2018-04-08T00:15:32.555Z,16.27
2018-04-08T00:16:32.526Z,16.25
2018-04-08T00:17:32.503Z,16.15
2018-04-08T00:18:32.450Z,16.02
2018-04-08T00:19:32.409Z,16.05
2018-04-08T00:20:32.418Z,16.08
2018-04-08T00:21:32.334Z,16.14
2018-04-08T00:22:32.329Z,16.17
2018-04-08T00:23:32.259Z,16.07
2018-04-08T00:24:32.224Z,16.07
2018-04-08T00:25:32.181Z,16.04
2018-04-08T00:26:32.165Z,16.08
2018-04-08T00:27:32.113Z,16.17
2018-04-08T00:28:32.109Z,16.15
2018-04-08T00:29:32.061Z,16.07
2018-04-08T00:30:32.005Z,16.09
2018-04-08T00:31:31.977Z,16.05
2018-04-08T00:32:31.953Z,16.15
2018-04-08T00:33:31.903Z,16.01
2018-04-08T00:34:31.880Z,16.01
2018-04-08T00:35:31.832Z,15.92
2018-04-08T00:36:31.805Z,15.93
2018-04-08T00:37:31.746Z,15.89
2018-04-08T00:38:31.713Z,15.93
2018-04-08T00:39:31.716Z,15.87
2018-04-08T00:40:31.631Z,15.90
2018-04-08T00:41:31.608Z,15.74
2018-04-08T00:42:31.563Z,15.78
2018-04-08T00:43:31.536Z,15.71
2018-04-08T00:44:31.516Z,15.84
2018-04-08T00:45:31.455Z,15.64
2018-04-08T00:46:31.442Z,15.62
2018-04-08T00:47:31.401Z,15.56
2018-04-08T00:48:31.350Z,15.47
2018-04-08T00:49:31.324Z,15.44
2018-04-08T00:50:31.311Z,15.47
2018-04-08T00:51:31.237Z,15.31
2018-04-08T00:52:31.204Z,15.32
2018-04-08T00:53:31.161Z,15.21
2018-04-08T00:54:31.128Z,15.23
2018-04-08T00:55:31.087Z,15.20
2018-04-08T00:56:31.108Z,15.17
2018-04-08T00:57:31.020Z,15.34
2018-04-08T00:58:30.979Z,15.35
2018-04-08T00:59:30.934Z,15.31
2018-04-08T01:00:30.904Z,15.29
2018-04-08T01:01:30.870Z,15.32
2018-04-08T01:02:30.860Z,15.14
2018-04-08T01:03:30.802Z,15.13
2018-04-08T01:04:30.751Z,15.01
2018-04-08T01:05:30.727Z,14.94
2018-04-08T01:06:30.697Z,14.98
2018-04-08T01:07:30.640Z,14.96
2018-04-08T01:08:30.635Z,14.84
2018-04-08T01:09:30.594Z,14.77
2018-04-08T01:10:30.546Z,14.77
2018-04-08T01:11:30.504Z,14.84
2018-04-08T01:12:30.466Z,14.91
2018-04-08T01:13:30.464Z,15.01
2018-04-08T01:14:30.383Z,14.98
2018-04-08T01:15:30.359Z,14.92
2018-04-08T01:16:30.308Z,14.83
2018-04-08T01:17:30.282Z,14.77
2018-04-08T01:18:30.244Z,14.75
2018-04-08T01:19:30.231Z,14.77
2018-04-08T01:20:30.174Z,14.69
2018-04-08T01:21:30.131Z,14.75
2018-04-08T01:22:30.097Z,14.69
2018-04-08T01:23:30.057Z,14.65
2018-04-08T01:24:30.060Z,14.61
2018-04-08T01:25:29.988Z,14.54
2018-04-08T01:26:29.966Z,14.39
2018-04-08T01:27:29.902Z,14.40
2018-04-08T01:28:29.891Z,14.33
2018-04-08T01:29:29.831Z,14.10
2018-04-08T01:30:29.818Z,14.06
2018-04-08T01:31:29.767Z,14.07
2018-04-08T01:32:29.730Z,13.91
2018-04-08T01:33:29.676Z,13.69
2018-04-08T01:34:29.640Z,13.63
2018-04-08T01:35:29.632Z,13.60
2018-04-08T01:36:29.576Z,13.46
2018-04-08T01:37:29.532Z,13.39
2018-04-08T01:38:29.495Z,13.28
2018-04-08T01:39:29.457Z,13.22
2018-04-08T01:40:29.446Z,13.11
2018-04-08T01:41:29.385Z,13.07
2018-04-08T01:42:29.339Z,13.23
2018-04-08T01:43:29.315Z,13.10
2018-04-08T01:44:29.271Z,13.03
2018-04-08T01:45:29.237Z,12.90
2018-04-08T01:46:29.223Z,12.87
2018-04-08T01:47:29.156Z,12.85
2018-04-08T01:48:29.113Z,12.83
2018-04-08T01:49:29.081Z,12.79
2018-04-08T01:50:29.048Z,12.70
2018-04-08T01:51:29.011Z,12.64
2018-04-08T01:52:29.000Z,12.53
2018-04-08T01:53:28.935Z,12.45
2018-04-08T01:54:28.894Z,12.50
2018-04-08T01:55:28.856Z,12.28
2018-04-08T01:56:28.835Z,12.29
2018-04-08T01:57:28.807Z,12.24
2018-04-08T01:58:28.749Z,12.20
2018-04-08T01:59:28.702Z,12.14
2018-04-08T02:00:28.664Z,12.04
2018-04-08T02:01:28.621Z,12.07
2018-04-08T02:02:28.586Z,11.91
2018-04-08T02:03:28.576Z,11.91
2018-04-08T02:04:28.522Z,11.88
2018-04-08T02:05:28.469Z,11.79
2018-04-08T02:06:28.445Z,11.83
2018-04-08T02:07:28.405Z,11.80
2018-04-08T02:08:28.386Z,11.85
2018-04-08T02:09:28.318Z,11.73
2018-04-08T02:10:28.288Z,11.73
2018-04-08T02:11:28.243Z,11.78
2018-04-08T02:12:28.208Z,11.73
2018-04-08T02:13:28.165Z,11.82
2018-04-08T02:14:28.164Z,11.72
2018-04-08T02:15:28.090Z,11.73
2018-04-08T02:16:28.079Z,11.86
2018-04-08T02:17:28.018Z,11.80
2018-04-08T02:18:27.986Z,11.86
2018-04-08T02:19:27.963Z,11.83
2018-04-08T02:20:27.921Z,11.85
2018-04-08T02:21:27.865Z,11.95
2018-04-08T02:22:27.823Z,11.99
2018-04-08T02:23:27.785Z,11.88
2018-04-08T02:24:27.755Z,11.90
2018-04-08T02:25:27.711Z,12.02
2018-04-08T02:26:27.711Z,11.99
2018-04-08T02:27:27.638Z,11.98
2018-04-08T02:28:27.590Z,11.99
2018-04-08T02:29:27.555Z,11.85
2018-04-08T02:30:27.520Z,11.95
2018-04-08T02:31:27.506Z,11.94
2018-04-08T02:32:27.447Z,11.95
2018-04-08T02:33:27.404Z,11.95
2018-04-08T02:34:27.371Z,11.85
2018-04-08T02:35:27.330Z,11.94
2018-04-08T02:36:27.296Z,11.98
2018-04-08T02:37:27.279Z,11.91
2018-04-08T02:38:27.207Z,11.88
2018-04-08T02:39:27.176Z,11.98
2018-04-08T02:40:27.138Z,11.94
2018-04-08T02:41:27.107Z,11.90
2018-04-08T02:42:27.057Z,11.91
2018-04-08T02:43:27.052Z,11.94
2018-04-08T02:44:27.016Z,11.90
2018-04-08T02:45:26.946Z,11.82
2018-04-08T02:46:26.915Z,11.76
2018-04-08T02:47:26.871Z,11.73
2018-04-08T02:48:26.861Z,11.75
2018-04-08T02:49:26.792Z,11.82
2018-04-08T02:50:26.763Z,11.75
2018-04-08T02:51:26.728Z,11.72
2018-04-08T02:52:26.680Z,11.75
2018-04-08T02:53:26.640Z,11.79
2018-04-08T02:54:26.629Z,11.75
2018-04-08T02:55:26.565Z,11.73
2018-04-08T02:56:26.541Z,11.70
2018-04-08T02:57:26.483Z,11.73
2018-04-08T02:58:26.443Z,11.72
2018-04-08T02:59:26.439Z,11.57
2018-04-08T03:00:26.415Z,11.57
2018-04-08T03:01:26.335Z,11.54
2018-04-08T03:02:26.297Z,11.58
2018-04-08T03:03:26.260Z,11.57
2018-04-08T03:04:26.217Z,11.54
2018-04-08T03:05:26.201Z,11.60
2018-04-08T03:06:26.149Z,11.60
2018-04-08T03:07:26.103Z,11.61
2018-04-08T03:08:26.062Z,11.58
2018-04-08T03:09:26.025Z,11.58
2018-04-08T03:10:26.013Z,11.61
2018-04-08T03:11:25.947Z,11.61
2018-04-08T03:12:25.909Z,11.64
2018-04-08T03:13:25.871Z,11.64
2018-04-08T03:14:25.839Z,11.61
2018-04-08T03:15:25.791Z,11.78
2018-04-08T03:16:25.792Z,11.73
2018-04-08T03:17:25.714Z,11.73
2018-04-08T03:18:25.675Z,11.88
2018-04-08T03:19:25.636Z,11.90
2018-04-08T03:20:25.603Z,11.90
2018-04-08T03:21:25.563Z,11.95
2018-04-08T03:22:25.546Z,11.94
2018-04-08T03:23:25.496Z,11.99
2018-04-08T03:24:25.453Z,11.99
2018-04-08T03:25:25.416Z,12.04
2018-04-08T03:26:25.369Z,12.13
2018-04-08T03:27:25.333Z,12.24
2018-04-08T03:28:25.320Z,12.32
2018-04-08T03:29:25.250Z,12.41
2018-04-08T03:30:25.219Z,12.45
2018-04-08T03:31:25.187Z,12.53
2018-04-08T03:32:25.158Z,12.62
2018-04-08T03:33:25.110Z,12.87
2018-04-08T03:34:25.088Z,12.86
2018-04-08T03:35:25.020Z,13.03
2018-04-08T03:36:24.994Z,12.96
2018-04-08T03:37:24.952Z,12.96
2018-04-08T03:38:24.915Z,12.85
2018-04-08T03:39:24.867Z,12.95
2018-04-08T03:40:24.859Z,12.97
2018-04-08T03:41:24.807Z,12.93
2018-04-08T03:42:24.761Z,13.03
2018-04-08T03:43:24.720Z,13.04
2018-04-08T03:44:24.686Z,13.08
2018-04-08T03:45:24.681Z,13.04
2018-04-08T03:46:24.607Z,13.08
2018-04-08T03:47:24.565Z,13.04
2018-04-08T03:48:24.540Z,13.08
2018-04-08T03:49:24.492Z,13.04
2018-04-08T03:50:24.484Z,13.08
2018-04-08T03:51:24.425Z,13.36
2018-04-08T03:52:24.380Z,13.39
2018-04-08T03:53:24.339Z,13.38
2018-04-08T03:54:24.305Z,13.49
2018-04-08T03:55:24.265Z,13.57
2018-04-08T03:56:24.263Z,13.70
2018-04-08T03:57:24.199Z,13.69
2018-04-08T03:58:24.162Z,13.73
2018-04-08T03:59:24.109Z,13.96
2018-04-08T04:00:24.076Z,14.00
2018-04-08T04:01:24.057Z,13.89
2018-04-08T04:02:24.005Z,13.91
2018-04-08T04:03:23.969Z,13.88
2018-04-08T04:04:23.921Z,13.95
2018-04-08T04:05:23.889Z,13.96
2018-04-08T04:06:23.877Z,13.89
2018-04-08T04:07:23.814Z,13.97
2018-04-08T04:08:23.781Z,14.06
2018-04-08T04:09:23.740Z,14.06
2018-04-08T04:10:23.707Z,14.09
2018-04-08T04:11:23.658Z,14.18
2018-04-08T04:12:23.656Z,14.18
2018-04-08T04:13:23.583Z,14.22
2018-04-08T04:14:23.555Z,14.24
2018-04-08T04:15:23.513Z,14.33
2018-04-08T04:16:23.481Z,14.25
2018-04-08T04:17:23.462Z,14.22
2018-04-08T04:18:23.406Z,14.22
2018-04-08T04:19:23.362Z,14.17
2018-04-08T04:20:23.333Z,14.15
2018-04-08T04:21:23.286Z,14.10
2018-04-08T04:22:23.288Z,14.12
2018-04-08T04:23:23.254Z,14.24
2018-04-08T04:24:23.181Z,14.24
2018-04-08T04:25:23.136Z,14.22
2018-04-08T04:26:23.104Z,14.36
2018-04-08T04:27:23.059Z,14.35
2018-04-08T04:28:23.050Z,14.39
2018-04-08T04:29:22.987Z,14.21
2018-04-08T04:30:22.956Z,14.18
2018-04-08T04:31:22.921Z,14.09
2018-04-08T04:32:22.910Z,14.03
2018-04-08T04:33:22.848Z,14.09
2018-04-08T04:34:22.806Z,14.07
2018-04-08T04:35:22.769Z,14.09
2018-04-08T04:36:22.735Z,14.20
2018-04-08T04:37:22.691Z,14.20
2018-04-08T04:38:22.691Z,14.18
2018-04-08T04:39:22.620Z,14.18
2018-04-08T04:40:22.574Z,14.04
2018-04-08T04:41:22.548Z,14.12
2018-04-08T04:42:22.511Z,14.15
2018-04-08T04:43:22.465Z,14.17
2018-04-08T04:44:22.456Z,14.14
2018-04-08T04:45:22.397Z,14.10
2018-04-08T04:46:22.359Z,14.14
2018-04-08T04:47:22.316Z,14.28
2018-04-08T04:48:22.280Z,14.40
2018-04-08T04:49:22.252Z,14.40
2018-04-08T04:50:22.226Z,14.39
2018-04-08T04:51:22.169Z,14.52
2018-04-08T04:52:22.133Z,14.45
2018-04-08T04:53:22.093Z,14.42
2018-04-08T04:54:22.062Z,14.42
2018-04-08T04:55:22.019Z,14.43
2018-04-08T04:56:22.014Z,14.42
2018-04-08T04:57:21.943Z,14.54
2018-04-08T04:58:21.908Z,14.61
2018-04-08T04:59:21.866Z,14.47
2018-04-08T05:00:21.835Z,14.62
2018-04-08T05:01:21.803Z,14.37
2018-04-08T05:02:21.808Z,14.42
2018-04-08T05:03:21.726Z,14.40
2018-04-08T05:04:21.683Z,14.02
2018-04-08T05:05:21.649Z,13.99
2018-04-08T05:06:21.607Z,13.85
2018-04-08T05:07:21.594Z,13.59
2018-04-08T05:08:21.556Z,13.48
2018-04-08T05:09:21.498Z,13.41
2018-04-08T05:10:21.458Z,13.30
2018-04-08T05:11:21.421Z,13.28
2018-04-08T05:12:21.404Z,13.15
2018-04-08T05:13:21.346Z,13.20
2018-04-08T05:14:21.316Z,13.01
2018-04-08T05:15:21.267Z,13.11
2018-04-08T05:16:21.227Z,13.04
2018-04-08T05:17:21.226Z,12.89
2018-04-08T05:18:21.168Z,12.92
2018-04-08T05:19:21.119Z,12.96
2018-04-08T05:20:21.078Z,13.04
2018-04-08T05:21:21.051Z,13.03
2018-04-08T05:22:21.013Z,12.95
2018-04-08T05:23:20.996Z,12.96
2018-04-08T05:24:20.934Z,12.86
2018-04-08T05:25:20.891Z,12.86
2018-04-08T05:26:20.862Z,12.79
2018-04-08T05:27:20.815Z,12.78
2018-04-08T05:28:20.786Z,12.72
2018-04-08T05:29:20.762Z,12.68
2018-04-08T05:30:20.704Z,12.62
2018-04-08T05:31:20.662Z,12.72
2018-04-08T05:32:20.630Z,12.68
2018-04-08T05:33:20.590Z,12.62
2018-04-08T05:34:20.583Z,12.70
2018-04-08T05:35:20.523Z,12.82
2018-04-08T05:36:20.480Z,12.75
2018-04-08T05:37:20.447Z,12.64
2018-04-08T05:38:20.403Z,12.65
2018-04-08T05:39:20.400Z,12.72
2018-04-08T05:40:20.329Z,12.70
2018-04-08T05:41:20.283Z,12.68
2018-04-08T05:42:20.251Z,12.71
2018-04-08T05:43:20.222Z,12.67
2018-04-08T05:44:20.181Z,12.65
2018-04-08T05:45:20.169Z,12.65
2018-04-08T05:46:20.097Z,12.62
2018-04-08T05:47:20.063Z,12.62
2018-04-08T05:48:20.029Z,12.71
2018-04-08T05:49:20.011Z,12.65
2018-04-08T05:50:19.957Z,12.72
2018-04-08T05:51:19.937Z,12.74
2018-04-08T05:52:19.886Z,12.78
2018-04-08T05:53:19.832Z,12.85
2018-04-08T05:54:19.825Z,12.89
2018-04-08T05:55:19.768Z,13.00
2018-04-08T05:56:19.723Z,13.10
2018-04-08T05:57:19.689Z,13.28
2018-04-08T05:58:19.647Z,13.51
2018-04-08T05:59:19.610Z,13.70
2018-04-08T06:00:19.604Z,13.82
2018-04-08T06:01:19.538Z,13.95
2018-04-08T06:02:19.499Z,14.18
2018-04-08T06:03:19.459Z,14.37
2018-04-08T06:04:19.427Z,14.18
2018-04-08T06:05:19.385Z,14.12
2018-04-08T06:06:19.381Z,13.97
2018-04-08T06:07:19.316Z,13.92
2018-04-08T06:08:19.266Z,13.75
2018-04-08T06:09:19.240Z,13.79
2018-04-08T06:10:19.200Z,13.79
2018-04-08T06:11:19.162Z,13.81
2018-04-08T06:12:19.154Z,13.66
2018-04-08T06:13:19.094Z,13.79
2018-04-08T06:14:19.137Z,13.85
2018-04-08T06:15:19.015Z,13.91
2018-04-08T06:16:18.977Z,13.96
2018-04-08T06:17:18.964Z,14.00
2018-04-08T06:18:18.904Z,14.03
2018-04-08T06:19:18.863Z,14.17
2018-04-08T06:20:18.821Z,14.17
2018-04-08T06:21:18.794Z,14.22
2018-04-08T06:22:18.755Z,14.27
2018-04-08T06:23:18.739Z,14.29
2018-04-08T06:24:18.682Z,14.39
2018-04-08T06:25:18.643Z,14.42
2018-04-08T06:26:18.601Z,14.42
2018-04-08T06:27:18.567Z,14.57
2018-04-08T06:28:18.556Z,14.50
2018-04-08T06:29:18.502Z,14.60
2018-04-08T06:30:18.505Z,14.64
2018-04-08T06:31:18.418Z,14.55
2018-04-08T06:32:18.383Z,14.64
2018-04-08T06:33:18.349Z,14.61
2018-04-08T06:34:18.339Z,14.62
2018-04-08T06:35:18.277Z,14.73
2018-04-08T06:36:18.243Z,14.73
2018-04-08T06:37:18.200Z,14.64
2018-04-08T06:38:18.229Z,14.81
2018-04-08T06:39:18.130Z,14.98
2018-04-08T06:40:18.116Z,15.02
2018-04-08T06:41:18.056Z,15.14
2018-04-08T06:42:18.023Z,15.32
2018-04-08T06:43:17.981Z,15.47
2018-04-08T06:44:17.945Z,15.67
2018-04-08T06:45:17.905Z,15.80
2018-04-08T06:46:17.898Z,15.94
2018-04-08T06:47:17.842Z,16.05
2018-04-08T06:48:17.803Z,16.11
2018-04-08T06:49:17.768Z,16.12
2018-04-08T06:50:17.725Z,16.20
2018-04-08T06:51:17.725Z,16.27
2018-04-08T06:52:17.658Z,16.09
2018-04-08T06:53:17.629Z,16.15
2018-04-08T06:54:17.586Z,16.25
2018-04-08T06:55:17.567Z,16.34
2018-04-08T06:56:17.524Z,16.30
2018-04-08T06:57:17.514Z,16.39
2018-04-08T06:58:17.452Z,16.34
2018-04-08T06:59:17.413Z,16.31
2018-04-08T07:00:17.371Z,16.33
2018-04-08T07:01:17.348Z,16.28
2018-04-08T07:02:17.308Z,16.45
2018-04-08T07:03:17.288Z,16.45
2018-04-08T07:04:17.232Z,16.57
2018-04-08T07:05:17.212Z,16.43
2018-04-08T07:06:17.178Z,16.46
2018-04-08T07:07:17.122Z,16.57
2018-04-08T07:08:17.125Z,16.66
2018-04-08T07:09:17.064Z,16.67
2018-04-08T07:10:17.021Z,16.71
2018-04-08T07:11:16.981Z,16.75
2018-04-08T07:12:16.945Z,16.83
2018-04-08T07:13:16.920Z,16.85
2018-04-08T07:14:16.916Z,16.93
2018-04-08T07:15:16.842Z,16.85
2018-04-08T07:16:16.839Z,16.85
2018-04-08T07:17:16.767Z,16.78
2018-04-08T07:18:16.801Z,16.88
2018-04-08T07:19:16.701Z,16.83
2018-04-08T07:20:16.706Z,16.88
2018-04-08T07:21:16.634Z,16.83
2018-04-08T07:22:16.593Z,16.91
2018-04-08T07:23:16.568Z,16.98
2018-04-08T07:24:16.554Z,16.97
2018-04-08T07:25:16.493Z,17.03
2018-04-08T07:26:16.470Z,17.12
2018-04-08T07:27:16.421Z,17.14
2018-04-08T07:28:16.391Z,17.16
2018-04-08T07:29:16.344Z,17.34
2018-04-08T07:30:16.335Z,17.46
2018-04-08T07:31:16.279Z,17.34
2018-04-08T07:32:16.289Z,17.46
2018-04-08T07:33:26.718Z,17.66
2018-04-08T07:34:16.177Z,17.54
2018-04-08T07:35:16.170Z,17.64
2018-04-08T07:36:16.106Z,17.64
2018-04-08T07:37:16.067Z,17.66
2018-04-08T07:38:16.047Z,17.71
2018-04-08T07:39:16.008Z,17.68
2018-04-08T07:40:15.969Z,17.82
2018-04-08T07:41:15.965Z,17.82
2018-04-08T07:42:15.892Z,17.87
2018-04-08T07:43:15.858Z,17.90
2018-04-08T07:44:15.846Z,17.87
2018-04-08T07:45:15.821Z,17.95
2018-04-08T07:46:15.777Z,17.92
2018-04-08T07:47:15.717Z,17.89
2018-04-08T07:48:15.687Z,18.00
2018-04-08T07:49:15.656Z,18.08
2018-04-08T07:50:15.649Z,18.07
2018-04-08T07:51:15.587Z,18.23
2018-04-08T07:52:15.554Z,18.36
2018-04-08T07:53:15.526Z,18.35
2018-04-08T07:54:15.486Z,18.48
2018-04-08T07:55:15.454Z,18.44
2018-04-08T07:56:15.455Z,18.50
2018-04-08T07:57:15.375Z,18.52
2018-04-08T07:58:15.347Z,18.51
2018-04-08T07:59:15.323Z,18.69
2018-04-08T08:00:15.307Z,18.85
2018-04-08T08:01:15.254Z,18.85
2018-04-08T08:02:15.220Z,18.98
2018-04-08T08:03:15.179Z,19.18
2018-04-08T08:04:15.165Z,19.21
2018-04-08T08:05:15.153Z,19.31
2018-04-08T08:06:15.086Z,19.43
2018-04-08T08:07:15.057Z,19.65
2018-04-08T08:08:15.020Z,19.77
2018-04-08T08:09:14.994Z,19.80
2018-04-08T08:10:14.936Z,19.81
2018-04-08T08:11:14.987Z,19.66
2018-04-08T08:12:14.870Z,19.71
2018-04-08T08:13:14.841Z,19.73
2018-04-08T08:14:14.824Z,19.80
2018-04-08T08:15:14.785Z,20.01
2018-04-08T08:16:14.760Z,19.86
2018-04-08T08:17:14.740Z,19.80
2018-04-08T08:18:14.711Z,19.84
2018-04-08T08:19:14.648Z,19.84
2018-04-08T08:20:14.615Z,19.83
2018-04-08T08:21:14.574Z,19.88
2018-04-08T08:22:14.597Z,19.88
2018-04-08T08:23:14.538Z,19.87
2018-04-08T08:24:14.484Z,19.80
2018-04-08T08:25:14.461Z,19.73
2018-04-08T08:26:14.427Z,19.63
2018-04-08T08:27:14.379Z,19.74
2018-04-08T08:28:14.381Z,19.80
2018-04-08T08:29:14.325Z,19.86
2018-04-08T08:30:14.303Z,19.87
2018-04-08T08:31:14.251Z,19.88
2018-04-08T08:32:14.227Z,19.84
2018-04-08T08:33:14.195Z,19.88
2018-04-08T08:34:14.208Z,19.88
2018-04-08T08:35:24.274Z,20.01
2018-04-08T08:36:14.104Z,20.05
2018-04-08T08:37:14.070Z,20.05
2018-04-08T08:38:14.041Z,20.05
2018-04-08T08:39:13.998Z,20.02
2018-04-08T08:40:13.994Z,20.06
2018-04-08T08:41:13.955Z,20.11
2018-04-08T08:42:13.897Z,20.24
2018-04-08T08:43:13.858Z,20.23
2018-04-08T08:44:13.850Z,20.14
2018-04-08T08:45:13.801Z,20.02
2018-04-08T08:46:13.793Z,19.91
2018-04-08T08:47:13.742Z,20.06
2018-04-08T08:48:13.707Z,20.16
2018-04-08T08:49:13.689Z,20.16
2018-04-08T08:50:13.642Z,20.23
2018-04-08T08:51:13.652Z,20.17
2018-04-08T08:52:13.581Z,20.28
2018-04-08T08:53:13.553Z,20.33
2018-04-08T08:54:13.527Z,20.41
2018-04-08T08:55:13.482Z,20.29
2018-04-08T08:56:22.324Z,20.41
2018-04-08T08:57:13.422Z,20.42
2018-04-08T08:58:13.394Z,20.52
2018-04-08T08:59:13.359Z,20.58
2018-04-08T09:00:13.328Z,20.57
2018-04-08T09:01:13.303Z,20.64
2018-04-08T09:02:13.295Z,20.73
2018-04-08T09:03:13.220Z,20.73
2018-04-08T09:04:13.190Z,20.85
2018-04-08T09:05:13.168Z,20.85
2018-04-08T09:06:13.166Z,20.94
2018-04-08T09:07:13.097Z,20.95
2018-04-08T09:08:13.069Z,21.13
2018-04-08T09:09:13.051Z,21.27
2018-04-08T09:10:13.000Z,21.25
2018-04-08T09:11:12.988Z,21.32
2018-04-08T09:12:12.971Z,21.80
2018-04-08T09:13:12.908Z,22.27
2018-04-08T09:14:12.879Z,22.61
2018-04-08T09:15:12.846Z,23.07
2018-04-08T09:16:12.813Z,23.39
2018-04-08T09:17:12.774Z,23.39
2018-04-08T09:18:12.776Z,23.60
2018-04-08T09:19:12.719Z,23.55
2018-04-08T09:20:12.728Z,23.75
2018-04-08T09:21:12.667Z,24.21
2018-04-08T09:22:12.653Z,23.97
2018-04-08T09:23:12.631Z,23.91
2018-04-08T09:24:12.671Z,24.34
2018-04-08T09:25:12.564Z,24.15
2018-04-08T09:26:12.519Z,24.21
2018-04-08T09:27:12.561Z,24.31
2018-04-08T09:28:12.468Z,24.35
2018-04-08T09:29:12.455Z,24.45
2018-04-08T09:30:12.424Z,23.95
2018-04-08T09:31:12.371Z,24.28
2018-04-08T09:32:12.357Z,24.42
2018-04-08T09:33:12.317Z,24.65
2018-04-08T09:34:12.280Z,24.91
2018-04-08T09:35:12.288Z,25.32
2018-04-08T09:36:12.238Z,25.46
2018-04-08T09:37:12.203Z,25.52
2018-04-08T09:38:12.169Z,25.65
2018-04-08T09:39:12.145Z,25.88
2018-04-08T09:40:12.108Z,25.14
2018-04-08T09:41:12.106Z,25.10
2018-04-08T09:42:12.093Z,25.18
2018-04-08T09:43:12.032Z,24.45
2018-04-08T09:44:12.022Z,24.25
2018-04-08T09:45:11.982Z,24.24
2018-04-08T09:46:11.984Z,24.68
2018-04-08T09:47:11.942Z,25.33
2018-04-08T09:48:11.908Z,25.57
2018-04-08T09:49:11.919Z,25.32
2018-04-08T09:50:11.847Z,25.28
2018-04-08T09:51:11.855Z,25.72
2018-04-08T09:52:11.786Z,25.67
2018-04-08T09:53:11.762Z,25.10
2018-04-08T09:54:11.739Z,24.55
2018-04-08T09:55:11.710Z,24.28
2018-04-08T09:56:11.702Z,24.05
2018-04-08T09:57:11.709Z,23.68
2018-04-08T09:58:11.637Z,23.35
2018-04-08T09:59:11.598Z,23.05
2018-04-08T10:00:11.574Z,22.95
2018-04-08T10:01:11.592Z,23.05
2018-04-08T10:02:11.517Z,23.13
2018-04-08T10:03:11.494Z,23.01
2018-04-08T10:04:11.466Z,22.79
2018-04-08T10:05:11.438Z,22.65
2018-04-08T10:06:11.418Z,22.70
2018-04-08T10:07:11.438Z,22.70
2018-04-08T10:08:11.344Z,22.64
2018-04-08T10:09:11.338Z,22.61
2018-04-08T10:10:11.299Z,22.80
2018-04-08T10:11:11.259Z,22.75
2018-04-08T10:12:11.234Z,22.47
2018-04-08T10:13:11.276Z,22.60
2018-04-08T10:14:11.182Z,22.61
2018-04-08T10:15:11.153Z,22.62
2018-04-08T10:16:11.125Z,22.30
2018-04-08T10:17:11.094Z,22.35
2018-04-08T10:18:11.057Z,22.58
2018-04-08T10:19:11.407Z,22.65
2018-04-08T10:20:10.996Z,22.68
2018-04-08T10:21:10.972Z,22.80
2018-04-08T10:22:10.948Z,22.76
2018-04-08T10:23:10.924Z,22.94
2018-04-08T10:24:10.924Z,23.05
2018-04-08T10:25:10.855Z,22.85
2018-04-08T10:26:10.819Z,23.05
2018-04-08T10:27:10.796Z,23.02
2018-04-08T10:28:10.765Z,23.10
2018-04-08T10:29:10.918Z,23.02
2018-04-08T10:30:10.719Z,23.35
2018-04-08T10:31:10.665Z,23.33
2018-04-08T10:32:10.681Z,23.12
2018-04-08T10:33:10.616Z,23.09
2018-04-08T10:34:10.612Z,23.39
2018-04-08T10:35:10.569Z,23.46
2018-04-08T10:36:10.527Z,23.69
2018-04-08T10:37:10.496Z,23.63
2018-04-08T10:38:10.462Z,23.60
2018-04-08T10:39:10.437Z,23.42
2018-04-08T10:40:10.427Z,23.25
2018-04-08T10:41:10.401Z,23.32
2018-04-08T10:42:10.405Z,23.22
2018-04-08T10:43:10.324Z,23.20
2018-04-08T10:44:10.294Z,23.60
2018-04-08T10:45:10.298Z,23.93
2018-04-08T10:46:10.235Z,23.95
2018-04-08T10:47:10.202Z,23.94
2018-04-08T10:48:10.186Z,23.94
2018-04-08T10:49:10.140Z,23.93
2018-04-08T10:50:10.133Z,23.90
2018-04-08T10:51:10.112Z,23.83
2018-04-08T10:52:10.053Z,24.28
2018-04-08T10:53:10.038Z,24.47
2018-04-08T10:54:10.027Z,24.80
2018-04-08T10:55:09.985Z,25.10
2018-04-08T10:56:09.952Z,25.27
2018-04-08T10:57:09.957Z,24.88
2018-04-08T10:58:09.891Z,24.55
2018-04-08T10:59:09.851Z,24.32
2018-04-08T11:00:09.838Z,24.22
2018-04-08T11:01:09.795Z,24.20
2018-04-08T11:02:09.777Z,24.32
2018-04-08T11:03:09.773Z,24.46
2018-04-08T11:04:09.724Z,24.52
2018-04-08T11:05:09.698Z,24.65
2018-04-08T11:06:09.665Z,24.98
2018-04-08T11:07:09.665Z,25.35
2018-04-08T11:08:09.617Z,25.47
2018-04-08T11:09:09.635Z,25.52
2018-04-08T11:10:09.602Z,25.54
2018-04-08T11:11:09.530Z,25.99
2018-04-08T11:12:09.506Z,25.87
2018-04-08T11:13:09.475Z,25.82
2018-04-08T11:14:09.442Z,25.98
2018-04-08T11:15:09.455Z,26.36
2018-04-08T11:16:09.399Z,26.10
2018-04-08T11:17:09.384Z,26.10
2018-04-08T11:18:09.343Z,25.97
2018-04-08T11:19:09.324Z,25.87
2018-04-08T11:20:09.300Z,25.98
2018-04-08T11:21:09.300Z,26.12
2018-04-08T11:22:19.911Z,26.07
2018-04-08T11:23:19.456Z,26.12
2018-04-08T11:24:09.209Z,26.35
2018-04-08T11:25:09.176Z,26.60
2018-04-08T11:26:09.175Z,26.47
2018-04-08T11:27:09.120Z,26.37
2018-04-08T11:28:09.114Z,25.79
2018-04-08T11:29:09.078Z,25.62
2018-04-08T11:30:09.056Z,25.58
2018-04-08T11:31:09.067Z,25.46
2018-04-08T11:32:09.003Z,25.64
2018-04-08T11:33:08.983Z,25.50
2018-04-08T11:34:08.955Z,25.30
2018-04-08T11:35:08.936Z,25.46
2018-04-08T11:36:08.935Z,25.79
2018-04-08T11:37:08.883Z,26.05
2018-04-08T11:38:08.865Z,26.07
2018-04-08T11:39:08.848Z,26.06
2018-04-08T11:40:08.815Z,25.72
2018-04-08T11:41:08.824Z,25.50
2018-04-08T11:42:08.805Z,25.42
2018-04-08T11:43:08.732Z,25.47
2018-04-08T11:44:08.707Z,25.50
2018-04-08T11:45:08.689Z,25.46
2018-04-08T11:46:08.655Z,25.45
2018-04-08T11:47:08.653Z,25.35
2018-04-08T11:48:08.626Z,25.64
2018-04-08T11:49:08.577Z,25.73
2018-04-08T11:50:08.575Z,25.69
2018-04-08T11:51:08.525Z,25.46
2018-04-08T11:52:08.501Z,25.65
2018-04-08T11:53:08.505Z,25.47
2018-04-08T11:54:08.455Z,25.45
2018-04-08T11:55:08.442Z,25.39
2018-04-08T11:56:08.407Z,25.60
2018-04-08T11:57:08.377Z,25.77
2018-04-08T11:58:08.363Z,25.87
2018-04-08T11:59:08.350Z,25.83
2018-04-08T12:00:08.304Z,25.75
2018-04-08T12:01:08.288Z,25.79
2018-04-08T12:02:08.262Z,25.58
2018-04-08T12:03:08.229Z,25.50
2018-04-08T12:04:08.202Z,25.55
2018-04-08T12:05:08.214Z,25.72
2018-04-08T12:06:08.162Z,25.97
2018-04-08T12:07:08.134Z,25.92
2018-04-08T12:08:08.114Z,25.54
2018-04-08T12:09:08.092Z,25.55
2018-04-08T12:10:08.057Z,25.40
2018-04-08T12:11:08.066Z,25.28
2018-04-08T12:12:08.001Z,25.47
2018-04-08T12:13:07.978Z,25.50
2018-04-08T12:14:07.964Z,25.80
2018-04-08T12:15:07.946Z,26.02
2018-04-08T12:16:07.903Z,26.21
2018-04-08T12:17:07.927Z,26.28
2018-04-08T12:18:07.851Z,26.51
2018-04-08T12:19:07.839Z,26.50
2018-04-08T12:20:07.805Z,26.50
2018-04-08T12:21:07.784Z,26.55
2018-04-08T12:22:07.767Z,26.75
2018-04-08T12:23:07.765Z,26.57
2018-04-08T12:24:07.710Z,26.55
2018-04-08T12:25:07.695Z,26.76
2018-04-08T12:26:07.668Z,26.65
2018-04-08T12:27:07.646Z,26.36
2018-04-08T12:28:07.619Z,26.57
2018-04-08T12:29:07.617Z,26.45
2018-04-08T12:30:07.574Z,26.35
2018-04-08T12:31:07.548Z,26.15
2018-04-08T12:32:07.535Z,26.33
2018-04-08T12:33:07.498Z,26.36
2018-04-08T12:34:07.526Z,26.36
2018-04-08T12:35:07.458Z,26.28
2018-04-08T12:36:07.441Z,26.10
2018-04-08T12:37:07.410Z,26.09
2018-04-08T12:38:07.387Z,26.20
2018-04-08T12:39:07.376Z,25.80
2018-04-08T12:40:07.364Z,25.91
2018-04-08T12:41:07.328Z,25.87
2018-04-08T12:42:07.292Z,25.92
2018-04-08T12:43:07.282Z,25.97
2018-04-08T12:44:07.242Z,25.90
2018-04-08T12:45:07.234Z,25.70
2018-04-08T12:46:07.222Z,25.57
2018-04-08T12:47:07.194Z,25.69
2018-04-08T12:48:07.165Z,25.65
2018-04-08T12:49:07.136Z,25.65
2018-04-08T12:50:07.118Z,25.65
2018-04-08T12:51:07.104Z,25.69
2018-04-08T12:52:07.050Z,25.83